Hannibal Center, New York
Current Conditions -  °F | °C
As of 2:54 AM on Monday 26 Jan 2015 (Local Time) from KFZY Reporting Station
Clear Clear  
Wind Chill: -10°   Ceiling: Unl
Heat Index:   Visibility: 10mi
Dew Point: -5°   Wind: 5mph
Humidity: 79%   Direction: 60°ENE
Pressure: 30.08"   Gusts: NA
Location:  43.3091°N, 76.5484°W
Report Text: KFZY 260754Z AUTO 06004KT 10SM CLR M18/M21 A3008 RMK AO2 SLP194 T11781206
Loading
Personal Weather Stations






























Interactive Weather Map New forecast layout! Learn more

10-Day Weather Forecast

Advertisements
Track Severe Weather on mobile